createdAt,value
2023-05-14T00:00:55.632Z,81.80
2023-05-14T00:01:55.609Z,81.39
2023-05-14T00:16:04.120Z,82.00
2023-05-14T00:46:27.313Z,82.39
2023-05-14T01:55:26.140Z,88.12
2023-05-14T02:26:40.726Z,87.30
2023-05-14T02:45:56.294Z,87.30
2023-05-14T04:15:56.206Z,91.85
2023-05-14T04:15:59.368Z,91.39
2023-05-14T04:17:00.269Z,90.78
2023-05-14T04:17:59.302Z,89.56
2023-05-14T04:18:59.872Z,90.06
2023-05-14T04:19:59.125Z,90.37
2023-05-14T04:20:59.113Z,90.58
2023-05-14T04:21:59.108Z,90.82
2023-05-14T04:22:59.224Z,90.92
2023-05-14T04:23:59.104Z,91.13
2023-05-14T04:24:59.074Z,91.23
2023-05-14T04:25:59.035Z,91.33
2023-05-14T04:26:59.042Z,91.09
2023-05-14T04:27:59.068Z,90.99
2023-05-14T04:28:59.013Z,90.78
2023-05-14T04:29:59.035Z,90.43
2023-05-14T04:30:58.973Z,90.53
2023-05-14T04:31:59.062Z,89.47
2023-05-14T04:32:59.058Z,88.45
2023-05-14T04:33:58.951Z,89.06
2023-05-14T04:34:58.956Z,88.55
2023-05-14T04:35:58.973Z,88.61
2023-05-14T04:36:58.915Z,88.00
2023-05-14T04:37:58.945Z,87.53
2023-05-14T04:38:58.915Z,88.14
2023-05-14T04:39:58.898Z,89.78
2023-05-14T04:40:58.915Z,89.58
2023-05-14T04:41:58.864Z,89.51
2023-05-14T04:42:58.885Z,89.31
2023-05-14T04:43:58.911Z,89.37
2023-05-14T04:44:58.855Z,89.47
2023-05-14T04:45:58.835Z,89.47
2023-05-14T04:46:58.820Z,88.61
2023-05-14T04:47:58.860Z,88.10
2023-05-14T04:48:58.787Z,88.31
2023-05-14T04:49:58.816Z,88.00
2023-05-14T04:50:58.786Z,87.96
2023-05-14T04:51:58.772Z,87.41
2023-05-14T04:52:58.788Z,87.51
2023-05-14T04:53:58.811Z,86.49
2023-05-14T04:54:58.825Z,86.29
2023-05-14T04:55:58.735Z,86.33
2023-05-14T04:56:58.712Z,87.14
2023-05-14T04:57:58.717Z,87.35
2023-05-14T04:58:58.692Z,87.45
2023-05-14T04:59:58.716Z,88.17
2023-05-14T05:00:58.692Z,87.79
2023-05-14T05:01:58.683Z,88.17
2023-05-14T05:02:58.804Z,88.47
2023-05-14T05:03:58.685Z,88.43
2023-05-14T05:04:58.679Z,87.82
2023-05-14T05:05:58.611Z,87.77
2023-05-14T05:06:58.651Z,87.37
2023-05-14T05:07:58.632Z,87.47
2023-05-14T05:09:00.634Z,86.96
2023-05-14T05:09:58.576Z,86.92
2023-05-14T05:10:58.589Z,86.92
2023-05-14T05:11:58.548Z,86.41
2023-05-14T05:12:58.546Z,85.28
2023-05-14T05:13:58.555Z,85.80
2023-05-14T05:14:58.810Z,85.14
2023-05-14T05:15:58.521Z,85.39
2023-05-14T05:16:58.517Z,84.98
2023-05-14T05:17:58.512Z,85.19
2023-05-14T05:18:58.517Z,85.60
2023-05-14T05:19:58.490Z,85.14
2023-05-14T05:20:58.439Z,85.45
2023-05-14T05:21:58.517Z,85.35
2023-05-14T05:22:58.428Z,85.35
2023-05-14T05:23:59.981Z,84.74
2023-05-14T05:24:58.482Z,84.64
2023-05-14T05:25:58.451Z,84.23
2023-05-14T05:26:58.459Z,85.35
2023-05-14T05:27:58.423Z,85.14
2023-05-14T05:28:58.421Z,85.90
2023-05-14T05:29:59.218Z,85.75
2023-05-14T05:30:58.609Z,84.64
2023-05-14T05:31:58.474Z,84.64
2023-05-14T05:32:58.566Z,84.94
2023-05-14T05:33:58.449Z,84.64
2023-05-14T05:34:58.384Z,84.90
2023-05-14T05:35:58.436Z,85.14
2023-05-14T05:36:58.296Z,84.74
2023-05-14T05:37:59.842Z,85.14
2023-05-14T05:38:58.332Z,84.94
2023-05-14T05:39:58.291Z,85.14
2023-05-14T05:40:58.291Z,83.62
2023-05-14T05:41:58.347Z,84.12
2023-05-14T05:42:58.273Z,84.94
2023-05-14T05:43:58.204Z,84.64
2023-05-14T05:44:58.324Z,84.19
2023-05-14T05:45:58.388Z,84.19
2023-05-14T05:47:01.135Z,83.98
2023-05-14T05:47:59.936Z,83.78
2023-05-14T05:48:59.687Z,83.78
2023-05-14T05:49:58.251Z,84.19
2023-05-14T05:50:59.729Z,83.98
2023-05-14T05:51:59.558Z,83.98
2023-05-14T05:53:00.027Z,83.54
2023-05-14T05:53:59.796Z,83.74
2023-05-14T05:54:58.402Z,83.98
2023-05-14T05:55:58.389Z,83.78
2023-05-14T05:56:58.199Z,83.64
2023-05-14T05:57:59.615Z,83.58
2023-05-14T05:58:58.129Z,83.44
2023-05-14T05:59:58.120Z,83.74
2023-05-14T06:00:58.035Z,82.82
2023-05-14T06:01:58.095Z,82.76
2023-05-14T06:02:58.100Z,83.27
2023-05-14T06:03:59.337Z,83.44
2023-05-14T06:04:59.605Z,83.13
2023-05-14T06:05:58.069Z,82.73
2023-05-14T06:06:59.358Z,82.68
2023-05-14T06:07:59.462Z,81.77
2023-05-14T06:08:57.944Z,81.93
2023-05-14T06:09:57.945Z,81.23
2023-05-14T06:10:57.888Z,81.49
2023-05-14T06:11:57.911Z,80.51
2023-05-14T06:12:57.886Z,80.41
2023-05-14T06:13:57.889Z,79.86
2023-05-14T06:14:57.952Z,79.77
2023-05-14T06:15:57.958Z,79.56
2023-05-14T06:17:00.597Z,80.27
2023-05-14T06:17:59.433Z,81.09
2023-05-14T06:18:58.252Z,81.39
2023-05-14T06:19:57.882Z,80.78
2023-05-14T06:20:57.782Z,80.78
2023-05-14T06:21:57.812Z,80.68
2023-05-14T06:22:57.910Z,81.39
2023-05-14T06:23:57.805Z,81.29
2023-05-14T06:24:57.842Z,81.79
2023-05-14T06:25:57.730Z,81.66
2023-05-14T06:26:58.803Z,81.09
2023-05-14T06:28:00.602Z,81.15
2023-05-14T06:28:59.079Z,80.24
2023-05-14T06:29:57.771Z,80.58
2023-05-14T06:30:57.737Z,80.47
2023-05-14T06:31:57.766Z,80.64
2023-05-14T06:32:57.795Z,80.33
2023-05-14T06:33:57.687Z,80.24
2023-05-14T06:34:57.755Z,80.74
2023-05-14T06:35:57.669Z,79.79
2023-05-14T06:36:57.683Z,80.54
2023-05-14T06:37:57.800Z,79.72
2023-05-14T06:38:57.663Z,79.72
2023-05-14T06:39:57.967Z,78.91
2023-05-14T06:40:58.621Z,79.72
2023-05-14T06:41:57.536Z,79.08
2023-05-14T06:42:57.605Z,79.04
2023-05-14T06:43:57.547Z,79.35
2023-05-14T06:44:57.493Z,78.74
2023-05-14T06:45:57.593Z,78.64
2023-05-14T06:46:57.507Z,77.59
2023-05-14T06:47:57.636Z,78.30
2023-05-14T06:48:59.459Z,77.48
2023-05-14T06:49:58.462Z,76.64
2023-05-14T06:50:57.465Z,76.84
2023-05-14T06:51:57.476Z,76.09
2023-05-14T06:52:57.472Z,75.38
2023-05-14T06:53:57.447Z,73.93
2023-05-14T06:54:57.482Z,75.21
2023-05-14T06:55:57.528Z,74.71
2023-05-14T06:56:57.456Z,74.57
2023-05-14T06:59:21.679Z,74.94
2023-05-14T06:59:23.227Z,73.83
2023-05-14T07:00:23.285Z,73.59
2023-05-14T07:01:24.240Z,73.39
2023-05-14T07:03:48.211Z,73.12
2023-05-14T07:03:49.743Z,72.72
2023-05-14T07:04:49.809Z,73.39
2023-05-14T07:05:49.696Z,72.68
2023-05-14T07:06:50.285Z,71.97
2023-05-14T07:07:49.677Z,71.77
2023-05-14T07:08:49.672Z,72.28
2023-05-14T07:09:49.662Z,71.77
2023-05-14T07:10:49.802Z,72.17
2023-05-14T07:11:49.664Z,72.58
2023-05-14T07:12:49.615Z,72.08
2023-05-14T07:13:49.641Z,71.97
2023-05-14T07:14:49.629Z,71.77
2023-05-14T07:15:50.069Z,72.08
2023-05-14T07:16:49.798Z,71.23
2023-05-14T07:17:49.784Z,71.64
2023-05-14T07:18:49.613Z,70.19
2023-05-14T07:19:49.661Z,71.10
2023-05-14T07:20:49.604Z,71.30
2023-05-14T07:21:49.561Z,71.26
2023-05-14T07:22:49.557Z,69.92
2023-05-14T07:23:49.576Z,70.42
2023-05-14T07:24:49.597Z,70.09
2023-05-14T07:25:49.773Z,70.59
2023-05-14T07:26:50.933Z,68.57
2023-05-14T07:27:51.140Z,69.48
2023-05-14T07:28:51.402Z,68.14
2023-05-14T07:29:49.932Z,68.44
2023-05-14T07:30:50.832Z,68.85
2023-05-14T07:31:49.652Z,68.85
2023-05-14T07:32:50.899Z,68.21
2023-05-14T07:33:50.956Z,69.01
2023-05-14T07:34:51.112Z,68.41
2023-05-14T07:35:50.384Z,68.34
2023-05-14T07:36:49.415Z,68.41
2023-05-14T07:37:49.422Z,68.41
2023-05-14T07:38:49.360Z,68.21
2023-05-14T07:39:49.339Z,68.41
2023-05-14T07:40:49.365Z,67.91
2023-05-14T07:41:49.393Z,68.91
2023-05-14T07:42:49.375Z,68.04
2023-05-14T07:43:50.788Z,68.71
2023-05-14T07:44:50.352Z,66.36
2023-05-14T07:45:49.405Z,65.99
2023-05-14T07:46:49.303Z,67.00
2023-05-14T07:47:49.494Z,67.71
2023-05-14T07:48:49.354Z,66.09
2023-05-14T07:49:49.581Z,68.01
2023-05-14T07:50:49.777Z,68.61
2023-05-14T07:51:49.228Z,68.21
2023-05-14T07:52:49.294Z,69.05
2023-05-14T07:53:49.273Z,67.77
2023-05-14T07:54:50.583Z,69.35
2023-05-14T07:55:49.187Z,68.04
2023-05-14T07:56:49.232Z,68.24
2023-05-14T07:57:49.861Z,67.60
2023-05-14T07:58:49.173Z,67.30
2023-05-14T07:59:49.206Z,67.88
2023-05-14T08:00:49.114Z,67.17
2023-05-14T08:01:49.107Z,68.28
2023-05-14T08:02:49.241Z,66.97
2023-05-14T08:03:50.233Z,66.27
2023-05-14T08:04:49.105Z,66.36
2023-05-14T08:05:49.109Z,66.23
2023-05-14T08:06:49.145Z,65.73
2023-05-14T08:07:49.111Z,66.30
2023-05-14T08:08:49.334Z,65.93
2023-05-14T08:09:49.280Z,67.14
2023-05-14T08:10:49.541Z,66.33
2023-05-14T08:11:49.693Z,66.63
2023-05-14T08:12:49.300Z,66.53
2023-05-14T08:13:50.382Z,66.63
2023-05-14T08:14:48.974Z,66.13
2023-05-14T08:15:48.943Z,66.43
2023-05-14T08:16:49.106Z,67.31
2023-05-14T08:17:49.086Z,66.40
2023-05-14T08:18:49.020Z,66.00
2023-05-14T08:19:48.962Z,66.10
2023-05-14T08:20:48.966Z,64.66
2023-05-14T08:21:48.926Z,64.82
2023-05-14T08:22:48.857Z,66.40
2023-05-14T08:23:48.901Z,65.90
2023-05-14T08:24:48.970Z,65.36
2023-05-14T08:25:49.970Z,65.53
2023-05-14T08:26:48.900Z,64.83
2023-05-14T08:27:48.893Z,64.93
2023-05-14T08:28:48.823Z,63.59
2023-05-14T08:29:48.786Z,63.46
2023-05-14T08:30:48.795Z,63.87
2023-05-14T08:31:48.854Z,64.30
2023-05-14T08:32:48.848Z,63.36
2023-05-14T08:33:48.831Z,62.93
2023-05-14T08:34:49.320Z,63.33
2023-05-14T08:35:48.763Z,63.10
2023-05-14T08:36:48.775Z,61.52
2023-05-14T08:37:50.221Z,60.62
2023-05-14T08:38:49.338Z,60.62
2023-05-14T08:39:49.144Z,63.20
2023-05-14T08:40:48.900Z,61.67
2023-05-14T08:41:48.707Z,61.64
2023-05-14T08:42:48.693Z,59.70
2023-05-14T08:43:48.705Z,58.70
2023-05-14T08:44:48.758Z,59.61
2023-05-14T08:45:48.670Z,58.68
2023-05-14T08:46:48.655Z,58.18
2023-05-14T08:47:48.809Z,59.79
2023-05-14T08:48:48.657Z,56.84
2023-05-14T08:49:49.079Z,56.70
2023-05-14T08:50:48.565Z,53.21
2023-05-14T08:51:48.632Z,51.37
2023-05-14T08:52:48.602Z,51.40
2023-05-14T08:53:48.557Z,50.68
2023-05-14T08:54:48.886Z,51.70
2023-05-14T08:55:48.576Z,51.95
2023-05-14T08:56:50.520Z,51.50
2023-05-14T08:57:48.560Z,50.08
2023-05-14T08:58:48.502Z,49.19
2023-05-14T08:59:48.511Z,47.66
2023-05-14T09:00:48.520Z,49.76
2023-05-14T09:01:48.908Z,48.89
2023-05-14T09:02:49.395Z,49.07
2023-05-14T09:03:48.482Z,48.79
2023-05-14T09:04:48.429Z,48.71
2023-05-14T09:05:48.421Z,49.06
2023-05-14T09:06:48.414Z,49.76
2023-05-14T09:07:48.389Z,48.98
2023-05-14T09:08:48.412Z,49.01
2023-05-14T09:09:48.400Z,50.02
2023-05-14T09:10:48.336Z,51.82
2023-05-14T09:11:48.343Z,52.55
2023-05-14T09:12:48.320Z,52.14
2023-05-14T09:13:48.366Z,50.67
2023-05-14T09:14:48.502Z,51.25
2023-05-14T09:15:48.306Z,52.25
2023-05-14T09:16:48.419Z,51.67
2023-05-14T09:17:48.335Z,52.44
2023-05-14T09:18:48.581Z,51.87
2023-05-14T09:19:48.328Z,54.09
2023-05-14T09:20:48.300Z,53.12
2023-05-14T09:21:48.295Z,54.61
2023-05-14T09:22:48.271Z,53.72
2023-05-14T09:23:48.228Z,54.64
2023-05-14T09:24:48.239Z,56.27
2023-05-14T09:25:48.294Z,54.27
2023-05-14T09:26:50.630Z,53.84
2023-05-14T09:27:49.896Z,54.14
2023-05-14T09:28:48.178Z,54.82
2023-05-14T09:29:48.201Z,53.79
2023-05-14T09:30:48.237Z,53.86
2023-05-14T09:31:48.254Z,53.81
2023-05-14T09:32:48.150Z,51.45
2023-05-14T09:33:49.078Z,54.52
2023-05-14T09:34:49.730Z,55.65
2023-05-14T09:35:49.159Z,56.52
2023-05-14T09:36:49.829Z,56.10
2023-05-14T09:37:48.856Z,57.07
2023-05-14T09:38:48.150Z,53.89
2023-05-14T09:39:48.348Z,51.45
2023-05-14T09:40:48.081Z,51.62
2023-05-14T09:41:48.061Z,51.79
2023-05-14T09:42:48.060Z,51.97
2023-05-14T09:43:47.974Z,50.08
2023-05-14T09:44:48.041Z,51.87
2023-05-14T09:45:48.019Z,51.45
2023-05-14T09:46:48.262Z,50.87
2023-05-14T09:47:48.203Z,51.20
2023-05-14T09:48:48.635Z,51.27
2023-05-14T09:49:47.963Z,52.49
2023-05-14T09:50:47.963Z,53.74
2023-05-14T09:51:48.016Z,52.47
2023-05-14T09:52:47.969Z,53.97
2023-05-14T09:53:47.990Z,55.40
2023-05-14T09:54:47.927Z,56.67
2023-05-14T09:55:48.193Z,57.75
2023-05-14T09:56:49.269Z,55.94
2023-05-14T09:57:48.363Z,56.95
2023-05-14T09:58:47.872Z,56.62
2023-05-14T09:59:47.843Z,54.49
2023-05-14T10:00:47.932Z,52.14
2023-05-14T10:01:47.902Z,51.17
2023-05-14T10:02:47.967Z,51.07
2023-05-14T10:03:47.834Z,49.91
2023-05-14T10:04:47.857Z,48.82
2023-05-14T10:05:47.778Z,49.02
2023-05-14T10:06:47.772Z,49.41
2023-05-14T10:07:48.214Z,47.40
2023-05-14T10:08:47.703Z,49.26
2023-05-14T10:09:47.737Z,49.16
2023-05-14T10:10:47.808Z,49.48
2023-05-14T10:11:47.775Z,50.23
2023-05-14T10:12:47.734Z,49.04
2023-05-14T10:13:47.685Z,48.99
2023-05-14T10:14:47.821Z,49.11
2023-05-14T10:15:47.732Z,49.73
2023-05-14T10:16:47.649Z,47.21
2023-05-14T10:17:47.649Z,49.52
2023-05-14T10:18:47.728Z,53.59
2023-05-14T10:19:47.592Z,52.92
2023-05-14T10:20:47.603Z,51.97
2023-05-14T10:21:47.563Z,50.78
2023-05-14T10:22:48.046Z,51.12
2023-05-14T10:23:50.041Z,50.73
2023-05-14T10:24:48.607Z,50.30
2023-05-14T10:25:47.706Z,50.23
2023-05-14T10:26:47.634Z,51.45
2023-05-14T10:27:47.556Z,51.97
2023-05-14T10:28:47.731Z,52.04
2023-05-14T10:29:47.523Z,52.72
2023-05-14T10:30:47.587Z,49.58
2023-05-14T10:31:48.383Z,49.95
2023-05-14T10:32:47.547Z,50.62
2023-05-14T10:33:47.530Z,51.27
2023-05-14T10:34:47.461Z,51.50
2023-05-14T10:35:47.580Z,52.32
2023-05-14T10:36:47.443Z,51.32
2023-05-14T10:37:47.379Z,51.62
2023-05-14T10:38:47.381Z,49.33
2023-05-14T10:39:47.372Z,48.86
2023-05-14T10:40:47.354Z,46.08
2023-05-14T10:41:47.332Z,44.10
2023-05-14T10:42:47.441Z,43.47
2023-05-14T10:43:47.356Z,46.31
2023-05-14T10:44:47.304Z,47.13
2023-05-14T10:45:47.332Z,47.40
2023-05-14T10:46:47.430Z,49.15
2023-05-14T10:47:47.367Z,44.54
2023-05-14T10:48:47.367Z,45.21
2023-05-14T10:49:47.321Z,48.04
2023-05-14T10:50:47.632Z,49.14
2023-05-14T10:51:47.224Z,49.17
2023-05-14T10:52:47.951Z,46.20
2023-05-14T10:53:47.210Z,46.03
2023-05-14T10:54:47.197Z,47.77
2023-05-14T10:55:47.204Z,49.27
2023-05-14T10:56:47.157Z,50.38
2023-05-14T10:57:47.232Z,49.90
2023-05-14T10:58:47.273Z,49.33
2023-05-14T10:59:47.113Z,49.33
2023-05-14T11:00:47.122Z,48.38
2023-05-14T11:01:47.107Z,48.55
2023-05-14T11:02:47.235Z,49.20
2023-05-14T11:03:47.255Z,49.53
2023-05-14T11:04:47.072Z,51.20
2023-05-14T11:05:47.056Z,50.00
2023-05-14T11:06:47.027Z,49.15
2023-05-14T11:07:47.028Z,49.28
2023-05-14T11:08:47.229Z,49.33
2023-05-14T11:09:47.022Z,46.15
2023-05-14T11:10:47.021Z,46.44
2023-05-14T11:11:46.990Z,47.99
2023-05-14T11:12:47.046Z,46.49
2023-05-14T11:13:47.005Z,45.95
2023-05-14T11:14:47.076Z,44.82
2023-05-14T11:15:47.338Z,46.72
2023-05-14T11:16:46.976Z,45.18
2023-05-14T11:17:46.966Z,45.10
2023-05-14T11:18:47.043Z,47.84
2023-05-14T11:19:47.899Z,49.49
2023-05-14T11:20:46.897Z,50.26
2023-05-14T11:21:46.925Z,51.29
2023-05-14T11:22:46.833Z,51.92
2023-05-14T11:23:46.843Z,52.47
2023-05-14T11:24:46.850Z,48.68
2023-05-14T11:25:46.844Z,51.27
2023-05-14T11:26:46.792Z,49.35
2023-05-14T11:27:46.816Z,46.44
2023-05-14T11:28:46.790Z,48.97
2023-05-14T11:29:46.802Z,50.79
2023-05-14T11:30:46.783Z,49.10
2023-05-14T11:31:46.870Z,49.50
2023-05-14T11:32:47.163Z,49.22
2023-05-14T11:33:46.798Z,48.60
2023-05-14T11:34:46.809Z,49.38
2023-05-14T11:35:46.724Z,49.48
2023-05-14T11:36:46.704Z,50.47
2023-05-14T11:37:46.703Z,49.25
2023-05-14T11:38:46.706Z,48.88
2023-05-14T11:39:46.702Z,48.97
2023-05-14T11:40:46.670Z,47.58
2023-05-14T11:41:46.688Z,47.87
2023-05-14T11:42:46.636Z,49.96
2023-05-14T11:43:46.703Z,51.27
2023-05-14T11:44:46.615Z,50.82
2023-05-14T11:45:46.632Z,51.42
2023-05-14T11:46:46.622Z,51.17
2023-05-14T11:47:46.584Z,52.57
2023-05-14T11:48:46.581Z,52.44
2023-05-14T11:49:46.593Z,51.32
2023-05-14T11:50:46.580Z,50.92
2023-05-14T11:51:46.534Z,50.07
2023-05-14T11:52:46.569Z,50.87
2023-05-14T11:53:46.584Z,50.97
2023-05-14T11:54:46.554Z,50.07
2023-05-14T11:55:46.544Z,47.86
2023-05-14T11:56:46.539Z,49.35
2023-05-14T11:57:46.495Z,48.16
2023-05-14T11:58:46.499Z,48.28
2023-05-14T11:59:46.492Z,47.60
2023-05-14T12:00:46.480Z,47.75
2023-05-14T12:01:46.430Z,47.57
2023-05-14T12:02:47.633Z,47.90
2023-05-14T12:03:46.569Z,47.14
2023-05-14T12:04:46.467Z,47.21
2023-05-14T12:05:46.417Z,47.09
2023-05-14T12:06:46.399Z,46.37
2023-05-14T12:07:46.387Z,45.14
2023-05-14T12:08:46.375Z,48.35
2023-05-14T12:09:46.365Z,48.13
2023-05-14T12:10:46.350Z,49.18
2023-05-14T12:11:46.347Z,49.05
2023-05-14T12:12:46.332Z,47.59
2023-05-14T12:13:46.304Z,43.38
2023-05-14T12:14:46.299Z,43.45
2023-05-14T12:15:46.330Z,44.05
2023-05-14T12:16:46.542Z,44.65
2023-05-14T12:17:46.363Z,45.27
2023-05-14T12:18:46.265Z,47.71
2023-05-14T12:19:46.260Z,44.09
2023-05-14T12:20:46.242Z,46.48
2023-05-14T12:21:46.353Z,48.08
2023-05-14T12:22:46.236Z,47.56
2023-05-14T12:23:46.241Z,46.46
2023-05-14T12:24:46.238Z,43.53
2023-05-14T12:25:46.178Z,44.97
2023-05-14T12:26:46.201Z,47.35
2023-05-14T12:27:46.207Z,49.08
2023-05-14T12:28:46.177Z,48.95
2023-05-14T12:29:46.149Z,47.31
2023-05-14T12:30:46.157Z,46.00
2023-05-14T12:31:46.243Z,44.15
2023-05-14T12:32:46.227Z,44.37
2023-05-14T12:33:46.100Z,46.19
2023-05-14T12:34:46.114Z,48.97
2023-05-14T12:35:46.128Z,46.41
2023-05-14T12:36:46.119Z,49.32
2023-05-14T12:37:46.133Z,47.72
2023-05-14T12:38:46.107Z,51.97
2023-05-14T12:39:46.845Z,49.73
2023-05-14T12:40:46.060Z,49.93
2023-05-14T12:41:46.075Z,48.95
2023-05-14T12:42:46.087Z,49.35
2023-05-14T12:43:46.039Z,51.25
2023-05-14T12:44:45.997Z,50.13
2023-05-14T12:45:46.091Z,49.70
2023-05-14T12:46:46.106Z,50.55
2023-05-14T12:47:46.144Z,49.06
2023-05-14T12:48:45.952Z,48.91
2023-05-14T12:49:46.971Z,48.29
2023-05-14T12:50:45.952Z,48.89
2023-05-14T12:51:45.941Z,47.08
2023-05-14T12:52:45.952Z,47.05
2023-05-14T12:53:45.975Z,40.52
2023-05-14T12:54:45.967Z,45.96
2023-05-14T12:55:45.931Z,47.65
2023-05-14T12:56:45.892Z,48.05
2023-05-14T12:57:45.929Z,44.77
2023-05-14T12:58:45.873Z,46.56
2023-05-14T12:59:45.883Z,43.58
2023-05-14T13:00:45.866Z,45.09
2023-05-14T13:01:46.828Z,43.60
2023-05-14T13:02:45.914Z,44.59
2023-05-14T13:03:45.857Z,46.01
2023-05-14T13:04:45.844Z,47.99
2023-05-14T13:05:45.854Z,43.52
2023-05-14T13:06:45.789Z,43.84
2023-05-14T13:07:45.807Z,46.33
2023-05-14T13:08:45.773Z,44.34
2023-05-14T13:09:46.773Z,45.43
2023-05-14T13:10:45.735Z,44.96
2023-05-14T13:11:45.740Z,45.78
2023-05-14T13:12:45.748Z,44.68
2023-05-14T13:13:45.701Z,45.08
2023-05-14T13:14:45.699Z,46.20
2023-05-14T13:15:45.840Z,48.16
2023-05-14T13:16:45.671Z,48.56
2023-05-14T13:17:45.982Z,45.28
2023-05-14T13:18:45.708Z,42.69
2023-05-14T13:19:45.674Z,43.68
2023-05-14T13:20:45.647Z,45.42
2023-05-14T13:21:45.638Z,49.58
2023-05-14T13:22:46.228Z,47.37
2023-05-14T13:23:45.608Z,48.96
2023-05-14T13:24:45.627Z,44.82
2023-05-14T13:25:46.901Z,46.64
2023-05-14T13:26:45.735Z,47.39
2023-05-14T13:27:45.621Z,49.39
2023-05-14T13:28:46.307Z,48.49
2023-05-14T13:29:45.561Z,50.92
2023-05-14T13:30:45.531Z,49.24
2023-05-14T13:31:45.614Z,49.09
2023-05-14T13:32:45.577Z,49.14
2023-05-14T13:33:45.486Z,50.16
2023-05-14T13:34:45.524Z,49.84
2023-05-14T13:35:45.518Z,48.94
2023-05-14T13:36:45.468Z,50.16
2023-05-14T13:37:45.493Z,51.27
2023-05-14T13:38:45.474Z,54.97
2023-05-14T13:39:45.409Z,55.43
2023-05-14T13:40:45.577Z,58.49
2023-05-14T13:41:46.414Z,58.51
2023-05-14T13:42:45.417Z,59.01
2023-05-14T13:43:45.423Z,60.62
2023-05-14T13:44:45.443Z,55.71
2023-05-14T13:45:45.421Z,58.04
2023-05-14T13:46:45.915Z,59.75
2023-05-14T13:47:45.403Z,58.44
2023-05-14T13:48:45.402Z,60.05
2023-05-14T13:49:45.319Z,62.53
2023-05-14T13:50:45.299Z,62.93
2023-05-14T13:51:45.388Z,60.93
2023-05-14T13:52:45.339Z,58.01
2023-05-14T13:53:45.336Z,57.39
2023-05-14T13:54:45.319Z,56.56
2023-05-14T13:55:46.683Z,57.30
2023-05-14T13:56:45.286Z,56.37
2023-05-14T13:57:45.243Z,53.34
2023-05-14T13:58:45.252Z,55.82
2023-05-14T13:59:45.249Z,54.05
2023-05-14T14:00:45.238Z,54.55
2023-05-14T14:01:45.273Z,52.94
2023-05-14T14:02:45.291Z,54.47
2023-05-14T14:03:45.196Z,55.52
2023-05-14T14:04:45.316Z,53.69
2023-05-14T14:05:45.302Z,56.87
2023-05-14T14:06:45.198Z,54.14
2023-05-14T14:07:45.778Z,52.14
2023-05-14T14:08:45.124Z,52.55
2023-05-14T14:09:45.169Z,56.04
2023-05-14T14:10:45.120Z,54.41
2023-05-14T14:11:52.852Z,54.22
2023-05-14T14:12:46.103Z,53.14
2023-05-14T14:13:46.590Z,52.87
2023-05-14T14:14:46.123Z,52.22
2023-05-14T14:15:45.129Z,55.60
2023-05-14T14:16:45.060Z,56.52
2023-05-14T14:17:45.163Z,56.91
2023-05-14T14:18:45.099Z,56.91
2023-05-14T14:19:45.073Z,58.81
2023-05-14T14:20:45.025Z,56.91
2023-05-14T14:21:45.075Z,57.74
2023-05-14T14:22:45.019Z,57.54
2023-05-14T14:23:44.998Z,56.96
2023-05-14T14:24:45.187Z,58.07
2023-05-14T14:25:45.069Z,58.87
2023-05-14T14:26:45.044Z,59.70
2023-05-14T14:27:45.047Z,59.41
2023-05-14T14:28:44.910Z,60.33
2023-05-14T14:29:45.831Z,60.03
2023-05-14T14:30:46.293Z,60.64
2023-05-14T14:31:45.388Z,59.94
2023-05-14T14:32:45.408Z,60.24
2023-05-14T14:33:46.881Z,60.74
2023-05-14T14:34:45.748Z,60.84
2023-05-14T14:35:45.989Z,60.33
2023-05-14T14:36:44.884Z,60.03
2023-05-14T14:37:44.952Z,61.14
2023-05-14T14:38:44.853Z,60.84
2023-05-14T14:39:44.865Z,60.33
2023-05-14T14:40:44.778Z,60.03
2023-05-14T14:41:44.750Z,58.73
2023-05-14T14:42:44.765Z,58.15
2023-05-14T14:43:44.752Z,57.95
2023-05-14T14:44:44.762Z,58.45
2023-05-14T14:45:45.782Z,57.55
2023-05-14T14:46:44.692Z,58.15
2023-05-14T14:47:44.788Z,58.95
2023-05-14T14:48:44.731Z,59.19
2023-05-14T14:49:44.679Z,60.69
2023-05-14T14:50:45.064Z,60.89
2023-05-14T14:51:44.655Z,60.57
2023-05-14T14:52:45.911Z,62.10
2023-05-14T14:53:45.620Z,61.90
2023-05-14T14:54:44.693Z,62.71
2023-05-14T14:55:44.599Z,62.81
2023-05-14T14:56:44.582Z,61.90
2023-05-14T14:57:45.321Z,62.01
2023-05-14T14:58:44.568Z,63.31
2023-05-14T14:59:44.536Z,63.62
2023-05-14T15:00:44.831Z,61.60
2023-05-14T15:01:44.619Z,62.91
2023-05-14T15:02:45.362Z,62.88
2023-05-14T15:03:44.558Z,61.27
2023-05-14T15:04:44.615Z,61.44
2023-05-14T15:05:44.636Z,60.16
2023-05-14T15:06:44.439Z,60.06
2023-05-14T15:07:45.034Z,61.47
2023-05-14T15:08:45.628Z,60.77
2023-05-14T15:09:44.622Z,60.49
2023-05-14T15:10:44.870Z,59.69
2023-05-14T15:11:44.705Z,60.19
2023-05-14T15:12:45.140Z,60.47
2023-05-14T15:13:44.394Z,60.06
2023-05-14T15:14:44.787Z,61.07
2023-05-14T15:15:44.923Z,59.96
2023-05-14T15:16:44.427Z,59.76
2023-05-14T15:17:44.453Z,60.16
2023-05-14T15:18:44.393Z,58.25
2023-05-14T15:19:44.352Z,58.95
2023-05-14T15:20:44.339Z,58.86
2023-05-14T15:21:44.317Z,58.86
2023-05-14T15:22:44.307Z,58.45
2023-05-14T15:23:44.253Z,56.64
2023-05-14T15:24:45.271Z,56.64
2023-05-14T15:25:44.872Z,56.95
2023-05-14T15:26:44.248Z,56.71
2023-05-14T15:27:44.220Z,58.15
2023-05-14T15:28:44.804Z,55.51
2023-05-14T15:29:44.254Z,56.01
2023-05-14T15:30:44.233Z,56.31
2023-05-14T15:31:44.256Z,56.71
2023-05-14T15:32:44.181Z,55.68
2023-05-14T15:33:44.241Z,56.99
2023-05-14T15:34:44.172Z,55.68
2023-05-14T15:35:44.191Z,56.38
2023-05-14T15:36:44.734Z,57.82
2023-05-14T15:37:44.124Z,56.51
2023-05-14T15:38:44.172Z,57.12
2023-05-14T15:39:44.113Z,57.52
2023-05-14T15:40:44.110Z,58.22
2023-05-14T15:41:44.086Z,57.72
2023-05-14T15:42:44.118Z,57.12
2023-05-14T15:43:44.067Z,56.71
2023-05-14T15:44:44.058Z,59.43
2023-05-14T15:45:44.030Z,58.42
2023-05-14T15:46:44.164Z,58.62
2023-05-14T15:47:44.094Z,56.82
2023-05-14T15:48:44.006Z,56.51
2023-05-14T15:49:44.023Z,56.71
2023-05-14T15:50:44.028Z,57.19
2023-05-14T15:51:43.957Z,56.99
2023-05-14T15:52:44.020Z,56.69
2023-05-14T15:53:43.963Z,56.11
2023-05-14T15:54:44.813Z,58.09
2023-05-14T15:55:43.922Z,57.42
2023-05-14T15:56:43.923Z,57.90
2023-05-14T15:57:43.911Z,56.46
2023-05-14T15:58:43.960Z,55.76
2023-05-14T15:59:43.883Z,55.46
2023-05-14T16:00:44.788Z,56.56
2023-05-14T16:01:43.898Z,56.23
2023-05-14T16:02:43.933Z,57.14
2023-05-14T16:03:43.968Z,56.66
2023-05-14T16:04:43.843Z,55.93
2023-05-14T16:05:43.803Z,55.73
2023-05-14T16:06:43.805Z,56.54
2023-05-14T16:07:43.779Z,56.54
2023-05-14T16:08:43.815Z,55.83
2023-05-14T16:09:43.766Z,56.63
2023-05-14T16:10:43.746Z,56.54
2023-05-14T16:11:43.785Z,58.57
2023-05-14T16:12:43.722Z,55.35
2023-05-14T16:13:43.729Z,55.86
2023-05-14T16:14:43.730Z,56.76
2023-05-14T16:15:43.704Z,58.07
2023-05-14T16:16:43.732Z,56.74
2023-05-14T16:17:43.709Z,56.54
2023-05-14T16:18:43.690Z,56.30
2023-05-14T16:19:43.846Z,55.88
2023-05-14T16:20:43.687Z,55.68
2023-05-14T16:21:43.636Z,56.65
2023-05-14T16:22:43.617Z,53.55
2023-05-14T16:23:43.623Z,54.85
2023-05-14T16:24:43.655Z,56.63
2023-05-14T16:25:43.582Z,54.82
2023-05-14T16:26:43.578Z,54.02
2023-05-14T16:27:43.576Z,54.22
2023-05-14T16:28:43.641Z,53.00
2023-05-14T16:29:43.573Z,55.00
2023-05-14T16:30:43.564Z,56.00
2023-05-14T16:31:43.534Z,53.80
2023-05-14T16:32:43.564Z,53.19
2023-05-14T16:33:43.506Z,52.07
2023-05-14T16:34:43.471Z,52.59
2023-05-14T16:35:43.506Z,51.59
2023-05-14T16:36:43.493Z,52.22
2023-05-14T16:37:43.722Z,51.82
2023-05-14T16:38:57.150Z,52.44
2023-05-14T16:39:45.442Z,54.75
2023-05-14T16:40:43.413Z,52.72
2023-05-14T16:41:43.495Z,53.62
2023-05-14T16:42:43.408Z,54.05
2023-05-14T16:43:43.662Z,52.64
2023-05-14T16:44:43.394Z,51.84
2023-05-14T16:45:43.375Z,49.93
2023-05-14T16:46:43.352Z,51.46
2023-05-14T16:47:43.438Z,51.97
2023-05-14T16:48:45.142Z,51.49
2023-05-14T16:49:43.823Z,52.51
2023-05-14T16:50:44.228Z,53.90
2023-05-14T16:51:44.617Z,54.93
2023-05-14T16:52:45.611Z,54.72
2023-05-14T16:53:45.612Z,54.53
2023-05-14T16:54:45.220Z,54.53
2023-05-14T16:55:44.635Z,55.43
2023-05-14T16:56:45.268Z,55.03
2023-05-14T16:57:44.466Z,55.53
2023-05-14T16:58:43.787Z,54.43
2023-05-14T16:59:45.358Z,54.33
2023-05-14T17:00:45.300Z,54.80